createdAt,value
2019-01-08T00:01:29.933Z,98917.13
2019-01-08T00:04:00.086Z,98912.58
2019-01-08T00:06:30.341Z,98909.70
2019-01-08T00:09:00.247Z,98912.48
2019-01-08T00:11:30.694Z,98902.34
2019-01-08T00:14:00.899Z,98902.58
2019-01-08T00:16:31.126Z,98894.82
2019-01-08T00:19:01.280Z,98884.65
2019-01-08T00:21:31.280Z,98884.65
2019-01-08T00:24:01.870Z,98879.63
2019-01-08T00:26:31.844Z,98879.19
2019-01-08T00:29:02.510Z,98863.99
2019-01-08T00:31:32.442Z,98860.00
2019-01-08T00:34:02.336Z,98849.30
2019-01-08T00:36:32.242Z,98844.26
2019-01-08T00:39:02.403Z,98836.84
2019-01-08T00:41:32.550Z,98828.85
2019-01-08T00:44:02.745Z,98830.47
2019-01-08T00:46:32.878Z,98820.07
2019-01-08T00:49:02.876Z,98814.70
2019-01-08T00:51:32.792Z,98821.45
2019-01-08T00:54:02.673Z,98809.00
2019-01-08T00:56:32.856Z,98798.63
2019-01-08T00:59:02.862Z,98792.44
2019-01-08T01:01:33.005Z,98783.33
2019-01-08T01:04:03.240Z,98773.75
2019-01-08T01:06:33.713Z,98766.77
2019-01-08T01:09:05.344Z,98763.47
2019-01-08T01:11:35.475Z,98756.63
2019-01-08T01:14:05.422Z,98740.87
2019-01-08T01:16:35.588Z,98738.69
2019-01-08T01:19:05.821Z,98732.31
2019-01-08T01:21:36.757Z,98734.45
2019-01-08T01:24:07.242Z,98718.59
2019-01-08T01:26:37.532Z,98715.98
2019-01-08T01:29:07.509Z,98705.34
2019-01-08T01:31:37.654Z,98708.45
2019-01-08T01:34:07.942Z,98707.06
2019-01-08T01:36:37.911Z,98704.67
2019-01-08T01:42:59.340Z,98679.53
2019-01-08T01:45:29.507Z,98676.00
2019-01-08T01:47:59.746Z,98666.05
2019-01-08T01:54:16.805Z,98675.53
2019-01-08T01:56:46.964Z,98669.13
2019-01-08T01:59:16.983Z,98672.00
2019-01-08T02:01:47.209Z,98656.22
2019-01-08T02:04:17.609Z,98652.77
2019-01-08T02:06:47.788Z,98652.64
2019-01-08T02:09:17.746Z,98641.78
2019-01-08T02:11:47.674Z,98632.64
2019-01-08T02:14:17.814Z,98630.11
2019-01-08T02:16:47.721Z,98625.00
2019-01-08T02:19:17.876Z,98614.70
2019-01-08T02:21:47.864Z,98606.95
2019-01-08T02:24:18.248Z,98594.28
2019-01-08T02:26:48.406Z,98592.42
2019-01-08T02:29:18.307Z,98586.49
2019-01-08T02:31:48.345Z,98574.13
2019-01-08T02:34:18.524Z,98571.06
2019-01-08T02:36:48.465Z,98563.30
2019-01-08T02:39:18.604Z,98555.02
2019-01-08T02:41:48.587Z,98550.28
2019-01-08T02:44:19.187Z,98543.39
2019-01-08T02:46:49.481Z,98533.16
2019-01-08T02:49:19.936Z,98526.41
2019-01-08T02:51:49.834Z,98519.00
2019-01-08T02:54:20.100Z,98528.67
2019-01-08T02:56:50.297Z,98533.62
2019-01-08T02:59:25.195Z,98523.60
2019-01-08T03:01:52.805Z,98510.86
2019-01-08T03:04:22.710Z,98504.25
2019-01-08T03:06:52.699Z,98488.34
2019-01-08T03:09:22.580Z,98488.34
2019-01-08T03:11:52.475Z,98476.45
2019-01-08T03:14:22.950Z,98475.81
2019-01-08T03:16:53.202Z,98468.59
2019-01-08T03:19:23.725Z,98462.27
2019-01-08T03:21:54.414Z,98449.45
2019-01-08T03:24:24.389Z,98448.09
2019-01-08T03:26:54.799Z,98449.31
2019-01-08T03:29:24.746Z,98438.14
2019-01-08T03:31:55.368Z,98427.09
2019-01-08T03:34:25.328Z,98416.68
2019-01-08T03:36:55.228Z,98407.88
2019-01-08T03:39:25.792Z,98403.38
2019-01-08T03:41:55.934Z,98407.62
2019-01-08T03:44:26.113Z,98402.87
2019-01-08T03:46:56.104Z,98399.61
2019-01-08T03:49:26.145Z,98385.85
2019-01-08T03:51:56.068Z,98385.17
2019-01-08T03:54:26.128Z,98384.13
2019-01-08T03:56:56.721Z,98378.25
2019-01-08T03:59:26.624Z,98366.58
2019-01-08T04:01:56.819Z,98372.28
2019-01-08T04:04:26.739Z,98370.56
2019-01-08T04:06:56.662Z,98361.77
2019-01-08T04:09:26.599Z,98357.09
2019-01-08T04:11:56.516Z,98351.59
2019-01-08T04:14:26.425Z,98343.64
2019-01-08T04:16:56.364Z,98336.72
2019-01-08T04:19:26.426Z,98344.20
2019-01-08T04:21:56.941Z,98336.45
2019-01-08T04:24:26.874Z,98325.35
2019-01-08T04:26:56.809Z,98322.25
2019-01-08T04:29:26.734Z,98317.14
2019-01-08T04:31:56.650Z,98303.63
2019-01-08T04:34:26.583Z,98304.56
2019-01-08T04:36:56.504Z,98304.66
2019-01-08T04:39:26.421Z,98295.71
2019-01-08T04:41:56.351Z,98290.48
2019-01-08T04:44:26.422Z,98278.63
2019-01-08T04:46:56.342Z,98278.78
2019-01-08T04:49:26.614Z,98268.20
2019-01-08T04:51:56.554Z,98278.05
2019-01-08T04:54:26.475Z,98269.84
2019-01-08T04:56:56.404Z,98258.88
2019-01-08T04:59:26.324Z,98259.20
2019-01-08T05:01:56.243Z,98261.44
2019-01-08T05:04:27.120Z,98258.02
2019-01-08T05:06:57.053Z,98257.00
2019-01-08T05:09:26.983Z,98244.62
2019-01-08T05:11:56.898Z,98237.91
2019-01-08T05:14:26.804Z,98224.39
2019-01-08T05:16:56.725Z,98233.39
2019-01-08T05:19:27.358Z,98228.02
2019-01-08T05:21:57.350Z,98233.39
2019-01-08T05:24:27.264Z,98239.53
2019-01-08T05:26:57.199Z,98240.73
2019-01-08T05:29:27.135Z,98238.01
2019-01-08T05:31:57.603Z,98229.36
2019-01-08T05:34:27.538Z,98232.14
2019-01-08T05:36:57.822Z,98228.84
2019-01-08T05:39:27.807Z,98224.39
2019-01-08T05:41:57.887Z,98222.55
2019-01-08T05:44:28.508Z,98230.73
2019-01-08T05:46:58.674Z,98234.97
2019-01-08T05:55:48.886Z,98209.44
2019-01-08T05:58:19.319Z,98206.84
2019-01-08T06:00:49.238Z,98205.47
2019-01-08T06:03:19.259Z,98206.52
2019-01-08T06:05:49.191Z,98200.23
2019-01-08T06:08:19.708Z,98209.98
2019-01-08T06:10:50.470Z,98213.40
2019-01-08T06:13:20.383Z,98215.00
2019-01-08T06:15:50.348Z,98218.58
2019-01-08T06:18:21.187Z,98229.74
2019-01-08T06:20:51.291Z,98234.30
2019-01-08T06:23:21.217Z,98222.40
2019-01-08T06:25:51.126Z,98231.08
2019-01-08T06:28:21.776Z,98236.31
2019-01-08T06:30:51.726Z,98229.28
2019-01-08T06:33:22.456Z,98240.02
2019-01-08T06:35:52.385Z,98232.98
2019-01-08T06:38:23.073Z,98213.81
2019-01-08T06:40:57.575Z,98219.42
2019-01-08T06:43:24.654Z,98200.70
2019-01-08T06:45:55.214Z,98208.84
2019-01-08T06:48:25.239Z,98213.67
2019-01-08T06:50:56.344Z,98225.13
2019-01-08T06:53:26.706Z,98215.39
2019-01-08T06:55:57.427Z,98202.75
2019-01-08T06:58:27.590Z,98209.56
2019-01-08T07:00:57.584Z,98208.03
2019-01-08T07:03:28.333Z,98201.67
2019-01-08T07:05:58.293Z,98198.56
2019-01-08T07:08:29.604Z,98200.48
2019-01-08T07:10:59.627Z,98200.69
2019-01-08T07:13:30.135Z,98198.41
2019-01-08T07:16:00.120Z,98189.61
2019-01-08T07:18:30.161Z,98189.25
2019-01-08T07:21:00.327Z,98189.53
2019-01-08T07:23:30.354Z,98189.88
2019-01-08T07:26:00.274Z,98192.13
2019-01-08T07:28:30.366Z,98183.63
2019-01-08T07:31:00.713Z,98180.88
2019-01-08T07:33:30.714Z,98182.53
2019-01-08T07:36:00.776Z,98183.95
2019-01-08T07:38:30.699Z,98187.92
2019-01-08T07:41:00.613Z,98192.63
2019-01-08T07:43:30.786Z,98197.39
2019-01-08T07:46:01.328Z,98188.46
2019-01-08T07:48:31.347Z,98193.06
2019-01-08T07:51:01.616Z,98204.34
2019-01-08T07:53:31.954Z,98195.39
2019-01-08T07:56:01.949Z,98194.98
2019-01-08T07:58:31.879Z,98202.34
2019-01-08T08:01:01.783Z,98204.39
2019-01-08T08:03:31.841Z,98207.09
2019-01-08T08:06:02.202Z,98207.57
2019-01-08T08:08:32.126Z,98204.07
2019-01-08T08:11:02.267Z,98205.14
2019-01-08T08:13:32.538Z,98202.15
2019-01-08T08:16:02.487Z,98210.95
2019-01-08T08:22:23.391Z,98212.02
2019-01-08T08:24:53.779Z,98193.97
2019-01-08T08:27:23.694Z,98202.69
2019-01-08T08:29:53.811Z,98197.57
2019-01-08T08:32:24.232Z,98191.03
2019-01-08T08:34:54.834Z,98194.65
2019-01-08T08:37:25.366Z,98191.19
2019-01-08T08:39:55.540Z,98189.89
2019-01-08T08:42:25.458Z,98192.53
2019-01-08T08:44:55.384Z,98200.84
2019-01-08T08:47:25.772Z,98206.55
2019-01-08T08:49:55.697Z,98205.44
2019-01-08T08:52:25.678Z,98199.04
2019-01-08T08:54:55.592Z,98192.52
2019-01-08T08:57:25.508Z,98198.48
2019-01-08T08:59:56.153Z,98206.42
2019-01-08T09:02:26.095Z,98211.50
2019-01-08T09:04:56.048Z,98205.29
2019-01-08T09:07:26.357Z,98194.93
2019-01-08T09:09:56.404Z,98183.73
2019-01-08T09:12:26.366Z,98168.03
2019-01-08T09:18:47.482Z,98165.02
2019-01-08T09:21:17.446Z,98169.77
2019-01-08T09:23:47.607Z,98167.16
2019-01-08T09:26:17.525Z,98175.30
2019-01-08T09:28:47.456Z,98170.45
2019-01-08T09:31:17.792Z,98169.89
2019-01-08T09:33:47.887Z,98169.45
2019-01-08T09:36:17.807Z,98177.41
2019-01-08T09:38:50.201Z,98178.80
2019-01-08T09:41:21.935Z,98177.31
2019-01-08T09:43:51.892Z,98186.22
2019-01-08T09:46:22.089Z,98174.84
2019-01-08T09:48:52.066Z,98181.98
2019-01-08T09:51:22.334Z,98189.73
2019-01-08T09:53:52.708Z,98185.42
2019-01-08T09:56:22.852Z,98184.35
2019-01-08T10:18:00.853Z,98149.84
2019-01-08T10:27:50.262Z,98140.63
2019-01-08T10:30:20.455Z,98134.22
2019-01-08T10:32:50.364Z,98139.67
2019-01-08T10:35:20.446Z,98138.77
2019-01-08T10:37:50.392Z,98136.42
2019-01-08T10:40:20.571Z,98139.69
2019-01-08T10:42:52.198Z,98139.91
2019-01-08T10:45:22.393Z,98141.88
2019-01-08T10:47:52.403Z,98134.56
2019-01-08T10:50:22.420Z,98138.42
2019-01-08T10:52:52.342Z,98139.58
2019-01-08T10:55:22.554Z,98132.49
2019-01-08T10:57:52.764Z,98127.55
2019-01-08T11:00:22.812Z,98121.30
2019-01-08T11:02:53.266Z,98118.77
2019-01-08T11:05:23.535Z,98102.00
2019-01-08T11:07:53.477Z,98105.20
2019-01-08T11:10:23.501Z,98084.02
2019-01-08T11:12:53.498Z,98085.77
2019-01-08T11:15:24.253Z,98089.31
2019-01-08T11:17:54.318Z,98079.00
2019-01-08T11:20:24.318Z,98085.73
2019-01-08T11:22:54.255Z,98082.47
2019-01-08T11:26:36.810Z,98095.34
2019-01-08T11:36:44.674Z,98091.83
2019-01-08T11:39:14.773Z,98074.94
2019-01-08T11:41:44.980Z,98077.31
2019-01-08T11:48:06.793Z,98056.86
2019-01-08T11:50:37.571Z,98058.45
2019-01-08T11:53:09.102Z,98053.42
2019-01-08T11:55:39.024Z,98046.58
2019-01-08T11:58:09.284Z,98060.34
2019-01-08T12:00:39.314Z,98048.35
2019-01-08T12:03:09.292Z,98046.14
2019-01-08T12:05:39.212Z,98035.73
2019-01-08T12:08:09.144Z,98030.69
2019-01-08T12:10:39.320Z,98021.66
2019-01-08T12:13:09.265Z,98030.86
2019-01-08T12:15:39.466Z,98001.30
2019-01-08T12:18:10.344Z,98020.27
2019-01-08T12:20:40.264Z,98020.89
2019-01-08T12:23:10.523Z,98000.31
2019-01-08T12:25:40.986Z,98004.72
2019-01-08T12:28:11.332Z,97992.05
2019-01-08T12:30:41.302Z,97997.78
2019-01-08T12:33:11.252Z,97990.83
2019-01-08T12:35:41.295Z,97999.33
2019-01-08T12:38:12.253Z,97984.30
2019-01-08T12:40:42.412Z,97989.36
2019-01-08T12:43:12.653Z,97979.60
2019-01-08T12:45:42.604Z,97962.33
2019-01-08T12:48:12.517Z,97972.73
2019-01-08T12:50:42.467Z,97973.42
2019-01-08T12:53:12.390Z,97985.36
2019-01-08T12:55:42.312Z,97978.37
2019-01-08T12:58:12.224Z,97984.88
2019-01-08T13:00:42.804Z,97975.67
2019-01-08T13:03:13.180Z,97966.63
2019-01-08T13:05:43.389Z,97978.35
2019-01-08T13:08:13.341Z,97967.64
2019-01-08T13:10:43.492Z,97959.27
2019-01-08T13:13:13.874Z,97959.42
2019-01-08T13:15:44.064Z,97953.57
2019-01-08T13:18:14.003Z,97959.09
2019-01-08T13:20:43.997Z,97951.66
2019-01-08T13:23:13.988Z,97972.39
2019-01-08T13:25:44.162Z,97964.35
2019-01-08T13:28:14.666Z,97955.95
2019-01-08T13:30:44.826Z,97956.61
2019-01-08T13:33:15.369Z,97951.09
2019-01-08T13:35:45.520Z,97955.36
2019-01-08T13:38:15.675Z,97946.99
2019-01-08T13:40:45.841Z,97952.81
2019-01-08T13:43:15.793Z,97954.88
2019-01-08T13:45:46.232Z,97958.98
2019-01-08T13:48:16.216Z,97944.43
2019-01-08T13:50:46.210Z,97954.02
2019-01-08T13:53:16.190Z,97953.52
2019-01-08T13:55:46.631Z,97949.06
2019-01-08T14:02:07.639Z,97949.88
2019-01-08T14:04:37.653Z,97943.71
2019-01-08T14:07:07.650Z,97947.19
2019-01-08T14:09:37.592Z,97941.80
2019-01-08T14:12:07.602Z,97935.16
2019-01-08T14:14:37.610Z,97938.94
2019-01-08T14:17:07.586Z,97932.36
2019-01-08T14:19:37.779Z,97932.97
2019-01-08T14:22:07.866Z,97943.09
2019-01-08T14:24:37.815Z,97939.92
2019-01-08T14:27:11.825Z,97950.94
2019-01-08T14:29:39.371Z,97949.34
2019-01-08T14:32:09.301Z,97952.64
2019-01-08T14:34:39.233Z,97952.95
2019-01-08T14:37:09.683Z,97956.73
2019-01-08T14:39:39.768Z,97952.81
2019-01-08T14:42:09.768Z,97956.60
2019-01-08T14:44:40.416Z,97972.34
2019-01-08T14:47:10.463Z,97958.78
2019-01-08T14:49:40.416Z,97958.78
2019-01-08T14:52:11.354Z,97955.61
2019-01-08T14:54:41.545Z,97951.48
2019-01-08T14:57:11.715Z,97954.00
2019-01-08T14:59:41.965Z,97943.41
2019-01-08T15:02:11.979Z,97935.23
2019-01-08T15:04:42.149Z,97931.92
2019-01-08T15:07:12.159Z,97920.84
2019-01-08T15:09:42.713Z,97921.11
2019-01-08T15:12:12.947Z,97906.89
2019-01-08T15:18:34.075Z,97928.28
2019-01-08T15:21:04.107Z,97934.27
2019-01-08T15:23:34.464Z,97933.14
2019-01-08T15:26:04.403Z,97920.67
2019-01-08T15:28:34.864Z,97922.88
2019-01-08T15:31:04.884Z,97924.14
2019-01-08T15:33:34.962Z,97923.97
2019-01-08T15:36:04.954Z,97926.67
2019-01-08T15:42:26.170Z,97926.41
2019-01-08T15:44:56.354Z,97927.01
2019-01-08T15:53:52.335Z,97918.77
2019-01-08T15:56:22.267Z,97928.29
2019-01-08T15:58:52.487Z,97930.05
2019-01-08T16:01:22.513Z,97928.13
2019-01-08T16:03:52.622Z,97921.83
2019-01-08T16:06:22.556Z,97932.87
2019-01-08T16:08:52.482Z,97918.21
2019-01-08T16:11:22.552Z,97924.70
2019-01-08T16:13:52.680Z,97918.52
2019-01-08T16:16:23.112Z,97917.69
2019-01-08T16:18:53.347Z,97925.06
2019-01-08T16:21:23.552Z,97923.94
2019-01-08T16:23:53.719Z,97915.42
2019-01-08T16:26:23.744Z,97927.72
2019-01-08T16:28:53.657Z,97919.67
2019-01-08T16:31:25.161Z,97929.27
2019-01-08T16:33:55.821Z,97938.08
2019-01-08T16:36:26.688Z,97933.45
2019-01-08T16:38:57.026Z,97947.86
2019-01-08T16:41:27.057Z,97927.77
2019-01-08T16:43:57.801Z,97941.80
2019-01-08T16:46:27.710Z,97948.27
2019-01-08T16:48:57.645Z,97953.67
2019-01-08T16:51:27.724Z,97954.58
2019-01-08T16:53:57.893Z,97950.91
2019-01-08T16:56:27.830Z,97950.13
2019-01-08T16:58:58.435Z,97954.39
2019-01-08T17:01:28.380Z,97953.86
2019-01-08T17:03:58.568Z,97959.59
2019-01-08T17:06:29.085Z,97957.52
2019-01-08T17:08:59.030Z,97936.34
2019-01-08T17:11:28.956Z,97942.14
2019-01-08T17:13:59.286Z,97947.48
2019-01-08T17:16:29.917Z,97931.05
2019-01-08T17:18:59.903Z,97935.18
2019-01-08T17:21:29.860Z,97939.45
2019-01-08T17:23:59.875Z,97954.44
2019-01-08T17:26:29.948Z,97963.36
2019-01-08T17:29:00.241Z,97954.31
2019-01-08T17:31:31.095Z,97945.45
2019-01-08T17:34:01.284Z,97942.20
2019-01-08T17:36:31.604Z,97940.23
2019-01-08T17:39:01.528Z,97939.88
2019-01-08T17:41:31.457Z,97944.97
2019-01-08T17:44:01.463Z,97938.31
2019-01-08T17:46:31.893Z,97940.53
2019-01-08T17:49:01.818Z,97941.11
2019-01-08T17:51:31.856Z,97932.92
2019-01-08T17:54:01.803Z,97933.85
2019-01-08T17:56:31.709Z,97931.41
2019-01-08T17:59:13.651Z,97934.17
2019-01-08T18:02:09.416Z,97933.81
2019-01-08T18:04:39.883Z,97922.97
2019-01-08T18:07:10.654Z,97930.64
2019-01-08T18:09:40.829Z,97922.84
2019-01-08T18:12:10.740Z,97935.49
2019-01-08T18:18:32.692Z,97931.30
2019-01-08T18:21:02.780Z,97917.10
2019-01-08T18:23:32.898Z,97923.28
2019-01-08T18:29:54.170Z,97923.55
2019-01-08T18:32:24.179Z,97938.70
2019-01-08T18:34:54.283Z,97916.67
2019-01-08T18:37:25.299Z,97922.03
2019-01-08T18:43:46.374Z,97916.38
2019-01-08T18:46:16.312Z,97914.34
2019-01-08T18:48:46.590Z,97922.98
2019-01-08T18:51:16.536Z,97928.59
2019-01-08T18:53:46.699Z,97921.94
2019-01-08T18:56:16.618Z,97918.94
2019-01-08T18:58:46.615Z,97934.88
2019-01-08T19:01:16.524Z,97923.33
2019-01-08T19:03:46.852Z,97918.28
2019-01-08T19:06:16.850Z,97925.50
2019-01-08T19:09:24.186Z,97927.07
2019-01-08T19:11:55.376Z,97933.72
2019-01-08T19:14:29.967Z,97932.53
2019-01-08T19:17:00.045Z,97936.28
2019-01-08T19:19:31.346Z,97938.80
2019-01-08T19:22:01.504Z,97927.72
2019-01-08T19:24:32.141Z,97916.07
2019-01-08T19:27:02.211Z,97938.45
2019-01-08T19:29:32.137Z,97924.02
2019-01-08T19:32:02.681Z,97924.80
2019-01-08T19:34:32.967Z,97938.80
2019-01-08T19:37:02.913Z,97928.02
2019-01-08T19:39:33.621Z,97945.67
2019-01-08T19:42:03.635Z,97933.92
2019-01-08T19:44:33.644Z,97939.28
2019-01-08T19:47:04.224Z,97938.19
2019-01-08T19:49:34.170Z,97947.31
2019-01-08T19:52:04.305Z,97954.58
2019-01-08T19:54:34.488Z,97966.23
2019-01-08T19:57:04.682Z,97964.67
2019-01-08T19:59:34.932Z,97965.44
2019-01-08T20:05:55.802Z,97960.40
2019-01-08T20:08:26.327Z,97952.27
2019-01-08T20:10:56.999Z,97957.75
2019-01-08T20:13:26.939Z,97941.73
2019-01-08T20:15:56.942Z,97944.26
2019-01-08T20:18:26.862Z,97940.12
2019-01-08T20:20:56.873Z,97942.27
2019-01-08T20:23:26.793Z,97944.06
2019-01-08T20:25:57.031Z,97930.41
2019-01-08T20:28:27.169Z,97925.84
2019-01-08T20:30:57.176Z,97933.15
2019-01-08T20:33:27.115Z,97934.67
2019-01-08T20:35:59.016Z,97918.67
2019-01-08T20:38:28.934Z,97926.70
2019-01-08T20:40:58.876Z,97932.06
2019-01-08T20:43:28.808Z,97947.02
2019-01-08T20:45:59.059Z,97928.24
2019-01-08T20:48:29.068Z,97920.37
2019-01-08T20:51:01.977Z,97918.28
2019-01-08T20:53:31.916Z,97924.24
2019-01-08T20:56:02.026Z,97915.98
2019-01-08T20:58:32.019Z,97912.73
2019-01-08T21:01:02.690Z,97909.42
2019-01-08T21:03:32.868Z,97909.73
2019-01-08T21:06:02.902Z,97902.16
2019-01-08T21:08:32.837Z,97888.78
2019-01-08T21:11:02.997Z,97893.04
2019-01-08T21:13:33.227Z,97896.52
2019-01-08T21:16:03.160Z,97893.34
2019-01-08T21:18:33.287Z,97890.78
2019-01-08T21:21:03.834Z,97897.30
2019-01-08T21:23:33.881Z,97889.52
2019-01-08T21:26:04.082Z,97877.57
2019-01-08T21:28:34.147Z,97890.52
2019-01-08T21:31:04.453Z,97889.03
2019-01-08T21:33:34.442Z,97886.97
2019-01-08T21:39:55.079Z,97883.48
2019-01-08T21:42:24.989Z,97869.45
2019-01-08T21:44:55.395Z,97878.70
2019-01-08T21:47:25.318Z,97871.48
2019-01-08T21:49:55.230Z,97859.37
2019-01-08T21:52:25.337Z,97866.79
2019-01-08T21:54:55.345Z,97878.91
2019-01-08T21:57:25.275Z,97857.50
2019-01-08T21:59:55.289Z,97855.07
2019-01-08T22:02:25.628Z,97848.47
2019-01-08T22:04:56.027Z,97867.84
2019-01-08T22:07:26.085Z,97865.14
2019-01-08T22:09:56.389Z,97864.36
2019-01-08T22:12:26.692Z,97861.67
2019-01-08T22:14:57.072Z,97847.68
2019-01-08T22:17:27.044Z,97851.58
2019-01-08T22:19:56.957Z,97853.80
2019-01-08T22:22:26.921Z,97845.94
2019-01-08T22:24:56.840Z,97844.98
2019-01-08T22:27:26.739Z,97837.39
2019-01-08T22:29:56.906Z,97843.13
2019-01-08T22:32:27.426Z,97846.42
2019-01-08T22:35:02.392Z,97858.02
2019-01-08T22:37:29.524Z,97861.31
2019-01-08T22:39:59.452Z,97858.93
2019-01-08T22:42:29.379Z,97865.88
2019-01-08T22:48:51.047Z,97865.44
2019-01-08T22:51:21.249Z,97849.55
2019-01-08T22:59:58.517Z,97838.78
2019-01-08T23:02:28.775Z,97835.47
2019-01-08T23:04:58.982Z,97842.68
2019-01-08T23:07:29.053Z,97832.61
2019-01-08T23:09:59.216Z,97823.44
2019-01-08T23:12:29.214Z,97803.98
2019-01-08T23:14:59.517Z,97808.08
2019-01-08T23:17:29.427Z,97815.19
2019-01-08T23:19:59.343Z,97815.68
2019-01-08T23:22:29.397Z,97798.66
2019-01-08T23:25:00.913Z,97803.52
2019-01-08T23:27:30.913Z,97805.91
2019-01-08T23:30:00.837Z,97808.16
2019-01-08T23:32:30.763Z,97815.27
2019-01-08T23:35:01.127Z,97812.55
2019-01-08T23:37:31.403Z,97807.64
2019-01-08T23:40:01.395Z,97808.42
2019-01-08T23:42:31.433Z,97812.33
2019-01-08T23:45:01.554Z,97802.09
2019-01-08T23:47:31.808Z,97812.94
2019-01-08T23:50:02.052Z,97812.11
2019-01-08T23:52:49.164Z,97810.15
2019-01-08T23:55:23.435Z,97803.59
2019-01-08T23:57:54.311Z,97803.91
